sensor_id;sensor_type;location;lat;lon;timestamp;pressure;altitude;pressure_sealevel;temperature;humidity
60307;BME280;46155;52.364;6.580;2023-03-01T04:00:40;102807.59;;;-2.62;88.00
60307;BME280;46155;52.364;6.580;2023-03-01T04:03:05;102809.72;;;-2.65;88.58
60307;BME280;46155;52.364;6.580;2023-03-01T04:05:31;102808.13;;;-2.70;89.10
60307;BME280;46155;52.364;6.580;2023-03-01T04:07:57;102816.28;;;-2.67;89.05
60307;BME280;46155;52.364;6.580;2023-03-01T04:10:45;102812.78;;;-2.67;88.44
60307;BME280;46155;52.364;6.580;2023-03-01T04:13:13;102810.22;;;-2.67;88.66
60307;BME280;46155;52.364;6.580;2023-03-01T04:15:39;102804.81;;;-2.63;87.49
60307;BME280;46155;52.364;6.580;2023-03-01T04:18:05;102802.50;;;-2.67;88.27
60307;BME280;46155;52.364;6.580;2023-03-01T04:20:33;102798.78;;;-2.69;88.34
60307;BME280;46155;52.364;6.580;2023-03-01T04:23:19;102796.91;;;-2.70;88.33
60307;BME280;46155;52.364;6.580;2023-03-01T04:25:51;102802.06;;;-2.70;87.30
60307;BME280;46155;52.364;6.580;2023-03-01T04:30:56;102790.84;;;-2.77;88.08
60307;BME280;46155;52.364;6.580;2023-03-01T04:33:24;102790.84;;;-2.77;88.83
60307;BME280;46155;52.364;6.580;2023-03-01T04:35:50;102786.44;;;-2.78;88.94
60307;BME280;46155;52.364;6.580;2023-03-01T04:38:16;102780.34;;;-2.78;89.35
60307;BME280;46155;52.364;6.580;2023-03-01T04:40:42;102779.69;;;-2.83;89.40
60307;BME280;46155;52.364;6.580;2023-03-01T04:43:09;102783.19;;;-2.82;89.95
60307;BME280;46155;52.364;6.580;2023-03-01T04:45:35;102768.00;;;-2.81;89.07
60307;BME280;46155;52.364;6.580;2023-03-01T04:48:00;102773.59;;;-2.78;88.03
60307;BME280;46155;52.364;6.580;2023-03-01T04:50:26;102762.31;;;-2.72;88.29
60307;BME280;46155;52.364;6.580;2023-03-01T04:52:52;102760.91;;;-2.70;86.87
60307;BME280;46155;52.364;6.580;2023-03-01T04:55:18;102754.66;;;-2.78;86.93
60307;BME280;46155;52.364;6.580;2023-03-01T04:57:44;102762.88;;;-2.81;87.09
60307;BME280;46155;52.364;6.580;2023-03-01T05:00:15;102762.41;;;-2.84;87.46
60307;BME280;46155;52.364;6.580;2023-03-01T05:05:23;102762.94;;;-2.92;87.33
60307;BME280;46155;52.364;6.580;2023-03-01T05:07:58;102759.66;;;-2.91;87.81
60307;BME280;46155;52.364;6.580;2023-03-01T05:10:24;102754.72;;;-2.89;87.40
60307;BME280;46155;52.364;6.580;2023-03-01T05:12:50;102759.22;;;-2.94;87.63
60307;BME280;46155;52.364;6.580;2023-03-01T05:15:17;102753.63;;;-2.97;87.92
60307;BME280;46155;52.364;6.580;2023-03-01T05:17:43;102741.47;;;-2.98;88.00
60307;BME280;46155;52.364;6.580;2023-03-01T05:20:09;102747.53;;;-2.92;87.70
60307;BME280;46155;52.364;6.580;2023-03-01T05:22:35;102744.06;;;-2.98;87.95
60307;BME280;46155;52.364;6.580;2023-03-01T05:25:01;102738.47;;;-3.01;87.96
60307;BME280;46155;52.364;6.580;2023-03-01T05:27:27;102747.09;;;-3.01;87.58
60307;BME280;46155;52.364;6.580;2023-03-01T05:29:52;102740.59;;;-3.04;87.31
60307;BME280;46155;52.364;6.580;2023-03-01T05:32:17;102742.94;;;-3.06;87.64
60307;BME280;46155;52.364;6.580;2023-03-01T05:34:43;102735.28;;;-3.12;88.04
60307;BME280;46155;52.364;6.580;2023-03-01T05:37:09;102732.22;;;-3.09;89.56
60307;BME280;46155;52.364;6.580;2023-03-01T05:39:34;102726.94;;;-2.86;88.55
60307;BME280;46155;52.364;6.580;2023-03-01T05:42:01;102725.06;;;-2.87;87.40
60307;BME280;46155;52.364;6.580;2023-03-01T05:44:28;102725.09;;;-2.93;87.27
60307;BME280;46155;52.364;6.580;2023-03-01T05:46:54;102731.69;;;-3.01;87.17
60307;BME280;46155;52.364;6.580;2023-03-01T05:49:20;102735.47;;;-3.04;86.99
60307;BME280;46155;52.364;6.580;2023-03-01T05:51:50;102739.69;;;-3.11;87.12
60307;BME280;46155;52.364;6.580;2023-03-01T05:54:17;102724.81;;;-3.19;87.98
60307;BME280;46155;52.364;6.580;2023-03-01T05:56:43;102734.16;;;-3.25;88.47
60307;BME280;46155;52.364;6.580;2023-03-01T05:59:09;102734.41;;;-3.29;89.96
60307;BME280;46155;52.364;6.580;2023-03-01T06:01:35;102728.16;;;-3.31;89.34
60307;BME280;46155;52.364;6.580;2023-03-01T06:04:01;102725.38;;;-3.38;89.21
60307;BME280;46155;52.364;6.580;2023-03-01T06:06:27;102731.91;;;-3.40;90.06
60307;BME280;46155;52.364;6.580;2023-03-01T06:08:52;102727.75;;;-3.46;90.60
60307;BME280;46155;52.364;6.580;2023-03-01T06:11:19;102733.84;;;-3.51;92.20
60307;BME280;46155;52.364;6.580;2023-03-01T06:13:45;102730.59;;;-3.55;93.59
60307;BME280;46155;52.364;6.580;2023-03-01T06:16:11;102730.44;;;-3.68;94.53
60307;BME280;46155;52.364;6.580;2023-03-01T06:18:37;102727.66;;;-3.75;95.51
60307;BME280;46155;52.364;6.580;2023-03-01T06:21:03;102736.06;;;-3.76;96.04
60307;BME280;46155;52.364;6.580;2023-03-01T06:23:29;102741.66;;;-3.73;96.28
60307;BME280;46155;52.364;6.580;2023-03-01T06:25:54;102733.94;;;-3.73;96.03
60307;BME280;46155;52.364;6.580;2023-03-01T06:28:20;102737.19;;;-3.69;95.25
60307;BME280;46155;52.364;6.580;2023-03-01T06:30:45;102732.97;;;-3.63;93.77
60307;BME280;46155;52.364;6.580;2023-03-01T06:33:11;102742.78;;;-3.60;93.05
60307;BME280;46155;52.364;6.580;2023-03-01T06:35:37;102746.94;;;-3.55;92.40
60307;BME280;46155;52.364;6.580;2023-03-01T06:38:04;102739.44;;;-3.48;92.00
60307;BME280;46155;52.364;6.580;2023-03-01T06:40:31;102739.44;;;-3.48;91.02
60307;BME280;46155;52.364;6.580;2023-03-01T06:42:57;102739.91;;;-3.50;91.71
60307;BME280;46155;52.364;6.580;2023-03-01T06:45:23;102742.97;;;-3.53;92.95
60307;BME280;46155;52.364;6.580;2023-03-01T06:47:49;102749.06;;;-3.58;94.16
60307;BME280;46155;52.364;6.580;2023-03-01T06:50:16;102743.75;;;-3.71;96.04
60307;BME280;46155;52.364;6.580;2023-03-01T06:52:42;102748.66;;;-3.72;97.38
60307;BME280;46155;52.364;6.580;2023-03-01T06:55:10;102753.53;;;-3.68;98.00
60307;BME280;46155;52.364;6.580;2023-03-01T06:57:35;102762.84;;;-3.63;98.30
60307;BME280;46155;52.364;6.580;2023-03-01T07:00:02;102760.03;;;-3.59;99.64
60307;BME280;46155;52.364;6.580;2023-03-01T07:02:27;102760.19;;;-3.46;99.92
60307;BME280;46155;52.364;6.580;2023-03-01T07:04:52;102758.78;;;-2.97;100.00
60307;BME280;46155;52.364;6.580;2023-03-01T07:07:18;102749.28;;;-2.80;97.16
60307;BME280;46155;52.364;6.580;2023-03-01T07:09:47;102755.34;;;-2.73;95.76
60307;BME280;46155;52.364;6.580;2023-03-01T07:12:13;102752.03;;;-2.72;95.36
60307;BME280;46155;52.364;6.580;2023-03-01T07:14:38;102749.19;;;-2.68;94.76
60307;BME280;46155;52.364;6.580;2023-03-01T07:17:04;102749.63;;;-2.65;95.54
60307;BME280;46155;52.364;6.580;2023-03-01T07:19:29;102741.28;;;-2.70;96.85
60307;BME280;46155;52.364;6.580;2023-03-01T07:21:54;102744.53;;;-2.71;97.24
60307;BME280;46155;52.364;6.580;2023-03-01T07:24:21;102752.81;;;-2.79;97.96
60307;BME280;46155;52.364;6.580;2023-03-01T07:26:50;102749.75;;;-2.82;98.78
60307;BME280;46155;52.364;6.580;2023-03-01T07:29:16;102743.00;;;-2.82;99.61
60307;BME280;46155;52.364;6.580;2023-03-01T07:31:41;102743.63;;;-2.71;99.87
60307;BME280;46155;52.364;6.580;2023-03-01T07:34:07;102743.09;;;-2.63;100.00
60307;BME280;46155;52.364;6.580;2023-03-01T07:36:32;102752.34;;;-2.52;100.00
60307;BME280;46155;52.364;6.580;2023-03-01T07:38:58;102745.31;;;-2.48;100.00
60307;BME280;46155;52.364;6.580;2023-03-01T07:41:23;102751.25;;;-2.36;100.00
60307;BME280;46155;52.364;6.580;2023-03-01T07:43:48;102743.31;;;-2.13;100.00
60307;BME280;46155;52.364;6.580;2023-03-01T07:46:14;102740.69;;;-2.08;100.00
60307;BME280;46155;52.364;6.580;2023-03-01T07:48:39;102739.44;;;-1.98;100.00
60307;BME280;46155;52.364;6.580;2023-03-01T07:51:06;102745.66;;;-1.91;100.00
60307;BME280;46155;52.364;6.580;2023-03-01T07:53:32;102734.88;;;-1.88;100.00
60307;BME280;46155;52.364;6.580;2023-03-01T07:56:07;102740.59;;;-1.78;100.00
60307;BME280;46155;52.364;6.580;2023-03-01T07:58:37;102748.38;;;-1.65;100.00
60307;BME280;46155;52.364;6.580;2023-03-01T08:01:04;102736.88;;;-1.61;100.00
60307;BME280;46155;52.364;6.580;2023-03-01T08:03:30;102732.72;;;-1.48;99.41
60307;BME280;46155;52.364;6.580;2023-03-01T08:05:55;102736.16;;;-1.23;99.04
60307;BME280;46155;52.364;6.580;2023-03-01T08:08:20;102730.53;;;-1.08;97.17
60307;BME280;46155;52.364;6.580;2023-03-01T08:10:46;102735.34;;;-0.85;95.87
60307;BME280;46155;52.364;6.580;2023-03-01T08:13:11;102737.00;;;-0.73;94.86
60307;BME280;46155;52.364;6.580;2023-03-01T08:15:36;102738.69;;;-0.60;93.92
60307;BME280;46155;52.364;6.580;2023-03-01T08:18:02;102734.81;;;-0.51;92.96
60307;BME280;46155;52.364;6.580;2023-03-01T08:20:27;102735.41;;;-0.33;93.02
60307;BME280;46155;52.364;6.580;2023-03-01T08:22:52;102732.13;;;-0.07;92.91
60307;BME280;46155;52.364;6.580;2023-03-01T08:25:17;102736.84;;;0.16;90.88
60307;BME280;46155;52.364;6.580;2023-03-01T08:27:43;102739.19;;;0.27;90.22
60307;BME280;46155;52.364;6.580;2023-03-01T08:30:09;102740.47;;;0.44;89.53
60307;BME280;46155;52.364;6.580;2023-03-01T08:32:38;102740.69;;;0.58;88.44
60307;BME280;46155;52.364;6.580;2023-03-01T08:35:04;102735.50;;;0.58;87.12
60307;BME280;46155;52.364;6.580;2023-03-01T08:37:30;102733.66;;;0.77;86.73
60307;BME280;46155;52.364;6.580;2023-03-01T08:39:58;102726.50;;;0.82;83.25
60307;BME280;46155;52.364;6.580;2023-03-01T08:42:23;102730.09;;;0.90;83.52
60307;BME280;46155;52.364;6.580;2023-03-01T08:44:48;102731.50;;;1.20;83.44
60307;BME280;46155;52.364;6.580;2023-03-01T08:47:14;102725.25;;;1.53;82.79
60307;BME280;46155;52.364;6.580;2023-03-01T08:49:39;102733.03;;;1.80;81.14
60307;BME280;46155;52.364;6.580;2023-03-01T08:52:04;102729.97;;;1.70;79.76
60307;BME280;46155;52.364;6.580;2023-03-01T08:54:29;102717.63;;;1.75;80.02
60307;BME280;46155;52.364;6.580;2023-03-01T08:56:55;102718.41;;;1.81;78.90
60307;BME280;46155;52.364;6.580;2023-03-01T08:59:21;102721.44;;;1.98;78.70
60307;BME280;46155;52.364;6.580;2023-03-01T09:01:46;102717.28;;;2.13;78.64
60307;BME280;46155;52.364;6.580;2023-03-01T09:04:12;102708.88;;;2.50;77.37
60307;BME280;46155;52.364;6.580;2023-03-01T09:06:39;102723.38;;;2.70;74.28
60307;BME280;46155;52.364;6.580;2023-03-01T09:09:05;102725.41;;;2.65;73.39
60307;BME280;46155;52.364;6.580;2023-03-01T09:11:31;102730.16;;;2.40;71.96
60307;BME280;46155;52.364;6.580;2023-03-01T09:13:56;102719.94;;;2.35;71.97
60307;BME280;46155;52.364;6.580;2023-03-01T09:16:22;102714.28;;;2.59;72.88
60307;BME280;46155;52.364;6.580;2023-03-01T09:18:50;102714.09;;;2.57;71.48
60307;BME280;46155;52.364;6.580;2023-03-01T09:21:17;102712.22;;;2.56;70.34
60307;BME280;46155;52.364;6.580;2023-03-01T09:23:44;102715.38;;;2.54;70.30
60307;BME280;46155;52.364;6.580;2023-03-01T09:26:15;102716.69;;;2.57;69.93
60307;BME280;46155;52.364;6.580;2023-03-01T09:28:45;102719.31;;;2.79;70.24
60307;BME280;46155;52.364;6.580;2023-03-01T09:31:11;102717.31;;;3.13;71.07
60307;BME280;46155;52.364;6.580;2023-03-01T09:33:40;102725.28;;;3.28;68.96
60307;BME280;46155;52.364;6.580;2023-03-01T09:36:09;102719.72;;;3.40;68.78
60307;BME280;46155;52.364;6.580;2023-03-01T09:38:36;102713.56;;;3.61;67.93
60307;BME280;46155;52.364;6.580;2023-03-01T09:41:01;102702.44;;;3.62;67.38
60307;BME280;46155;52.364;6.580;2023-03-01T09:43:48;102712.47;;;3.59;66.33
60307;BME280;46155;52.364;6.580;2023-03-01T09:46:20;102700.25;;;3.36;65.28
60307;BME280;46155;52.364;6.580;2023-03-01T09:51:19;102690.94;;;3.67;66.13
60307;BME280;46155;52.364;6.580;2023-03-01T09:53:46;102687.84;;;4.00;64.11
60307;BME280;46155;52.364;6.580;2023-03-01T09:56:22;102686.22;;;3.86;63.79
60307;BME280;46155;52.364;6.580;2023-03-01T10:01:41;102676.38;;;3.91;62.24
60307;BME280;46155;52.364;6.580;2023-03-01T10:09:43;102672.59;;;4.10;59.44
60307;BME280;46155;52.364;6.580;2023-03-01T10:12:20;102676.03;;;3.81;58.48
60307;BME280;46155;52.364;6.580;2023-03-01T10:14:55;102673.78;;;3.91;58.53
60307;BME280;46155;52.364;6.580;2023-03-01T10:17:31;102647.41;;;3.95;58.41
60307;BME280;46155;52.364;6.580;2023-03-01T10:20:14;102663.28;;;4.12;59.49
60307;BME280;46155;52.364;6.580;2023-03-01T10:22:40;102663.31;;;4.05;57.74
60307;BME280;46155;52.364;6.580;2023-03-01T10:25:05;102656.88;;;3.94;57.98
60307;BME280;46155;52.364;6.580;2023-03-01T10:30:38;102650.56;;;3.92;59.61
60307;BME280;46155;52.364;6.580;2023-03-01T10:33:33;102648.72;;;4.29;57.12
60307;BME280;46155;52.364;6.580;2023-03-01T10:36:00;102650.97;;;4.26;57.01
60307;BME280;46155;52.364;6.580;2023-03-01T10:38:30;102644.69;;;4.17;58.13
60307;BME280;46155;52.364;6.580;2023-03-01T10:40:58;102646.13;;;4.29;57.18
60307;BME280;46155;52.364;6.580;2023-03-01T10:43:25;102645.03;;;4.27;56.58
60307;BME280;46155;52.364;6.580;2023-03-01T10:45:52;102653.66;;;4.72;57.08
60307;BME280;46155;52.364;6.580;2023-03-01T10:48:23;102655.88;;;4.76;54.89
60307;BME280;46155;52.364;6.580;2023-03-01T10:51:05;102654.19;;;4.46;56.25
60307;BME280;46155;52.364;6.580;2023-03-01T10:53:36;102645.81;;;4.49;56.67
60307;BME280;46155;52.364;6.580;2023-03-01T10:56:11;102649.91;;;4.47;56.59
60307;BME280;46155;52.364;6.580;2023-03-01T10:58:41;102646.06;;;4.36;57.47
60307;BME280;46155;52.364;6.580;2023-03-01T11:01:25;102645.28;;;4.44;58.50
60307;BME280;46155;52.364;6.580;2023-03-01T11:06:36;102635.19;;;4.55;56.98
60307;BME280;46155;52.364;6.580;2023-03-01T11:09:21;102647.81;;;4.28;57.49
60307;BME280;46155;52.364;6.580;2023-03-01T11:11:55;102641.22;;;4.39;58.12
60307;BME280;46155;52.364;6.580;2023-03-01T11:14:34;102636.97;;;4.63;57.41
60307;BME280;46155;52.364;6.580;2023-03-01T11:19:28;102631.09;;;4.57;55.96
60307;BME280;46155;52.364;6.580;2023-03-01T11:22:12;102626.63;;;4.56;58.47
60307;BME280;46155;52.364;6.580;2023-03-01T11:24:40;102629.53;;;4.89;57.91
60307;BME280;46155;52.364;6.580;2023-03-01T11:27:26;102623.97;;;4.86;55.84
60307;BME280;46155;52.364;6.580;2023-03-01T11:32:32;102626.06;;;4.81;55.58
60307;BME280;46155;52.364;6.580;2023-03-01T11:40:40;102606.81;;;4.72;55.92
60307;BME280;46155;52.364;6.580;2023-03-01T12:06:27;102603.75;;;5.23;54.73
60307;BME280;46155;52.364;6.580;2023-03-01T12:14:49;102590.50;;;5.60;55.03
60307;BME280;46155;52.364;6.580;2023-03-01T12:17:46;102591.09;;;5.58;52.59
60307;BME280;46155;52.364;6.580;2023-03-01T12:20:21;102586.34;;;5.78;53.57
60307;BME280;46155;52.364;6.580;2023-03-01T12:23:16;102590.38;;;5.83;53.35
60307;BME280;46155;52.364;6.580;2023-03-01T12:31:34;102574.41;;;5.80;52.46
60307;BME280;46155;52.364;6.580;2023-03-01T12:37:14;102571.34;;;6.16;51.43
60307;BME280;46155;52.364;6.580;2023-03-01T12:45:32;102556.75;;;6.10;52.15
60307;BME280;46155;52.364;6.580;2023-03-01T12:49:20;102564.94;;;6.22;52.72
60307;BME280;46155;52.364;6.580;2023-03-01T12:51:15;102555.50;;;6.31;52.67
60307;BME280;46155;52.364;6.580;2023-03-01T12:53:47;102557.28;;;6.23;52.45
60307;BME280;46155;52.364;6.580;2023-03-01T12:56:20;102550.81;;;6.19;52.96
60307;BME280;46155;52.364;6.580;2023-03-01T12:59:11;102545.06;;;6.31;53.63
60307;BME280;46155;52.364;6.580;2023-03-01T13:01:45;102535.34;;;6.21;52.42
60307;BME280;46155;52.364;6.580;2023-03-01T13:04:41;102543.09;;;5.96;52.53
60307;BME280;46155;52.364;6.580;2023-03-01T13:17:49;102509.78;;;5.94;55.21
60307;BME280;46155;52.364;6.580;2023-03-01T13:20:19;102502.56;;;6.07;53.22
60307;BME280;46155;52.364;6.580;2023-03-01T13:22:46;102501.31;;;6.03;53.03
60307;BME280;46155;52.364;6.580;2023-03-01T13:25:21;102496.09;;;6.03;52.60
60307;BME280;46155;52.364;6.580;2023-03-01T13:27:46;102499.22;;;6.08;53.39
60307;BME280;46155;52.364;6.580;2023-03-01T13:35:53;102487.03;;;6.00;53.10
60307;BME280;46155;52.364;6.580;2023-03-01T13:38:44;102480.13;;;6.00;53.49
60307;BME280;46155;52.364;6.580;2023-03-01T13:41:12;102481.84;;;6.00;53.09
60307;BME280;46155;52.364;6.580;2023-03-01T13:43:41;102484.69;;;5.94;53.59
60307;BME280;46155;52.364;6.580;2023-03-01T13:46:16;102480.72;;;5.98;52.90
60307;BME280;46155;52.364;6.580;2023-03-01T13:48:45;102478.50;;;5.94;53.08
60307;BME280;46155;52.364;6.580;2023-03-01T13:51:12;102470.38;;;5.91;52.79
60307;BME280;46155;52.364;6.580;2023-03-01T13:53:46;102478.69;;;6.11;53.80
60307;BME280;46155;52.364;6.580;2023-03-01T13:56:12;102478.69;;;6.11;51.73
60307;BME280;46155;52.364;6.580;2023-03-01T14:01:31;102473.06;;;5.99;51.69
60307;BME280;46155;52.364;6.580;2023-03-01T14:03:57;102478.63;;;6.02;52.06
60307;BME280;46155;52.364;6.580;2023-03-01T14:06:26;102475.63;;;6.15;52.48
60307;BME280;46155;52.364;6.580;2023-03-01T14:09:15;102469.34;;;6.22;51.40
60307;BME280;46155;52.364;6.580;2023-03-01T14:17:27;102454.38;;;6.03;52.36
60307;BME280;46155;52.364;6.580;2023-03-01T14:20:12;102424.38;;;6.16;53.00
60307;BME280;46155;52.364;6.580;2023-03-01T14:22:41;102430.88;;;6.19;50.87
60307;BME280;46155;52.364;6.580;2023-03-01T14:28:00;102413.34;;;6.18;51.37
60307;BME280;46155;52.364;6.580;2023-03-01T14:30:31;102416.16;;;6.29;51.13
60307;BME280;46155;52.364;6.580;2023-03-01T14:33:03;102417.91;;;6.12;50.60
60307;BME280;46155;52.364;6.580;2023-03-01T14:35:32;102410.31;;;6.23;51.23
60307;BME280;46155;52.364;6.580;2023-03-01T14:37:58;102409.81;;;6.18;51.43
60307;BME280;46155;52.364;6.580;2023-03-01T14:40:33;102404.13;;;6.13;51.65
60307;BME280;46155;52.364;6.580;2023-03-01T14:43:01;102389.44;;;6.23;51.70
60307;BME280;46155;52.364;6.580;2023-03-01T14:45:29;102388.66;;;6.24;51.72
60307;BME280;46155;52.364;6.580;2023-03-01T14:47:59;102396.81;;;6.27;52.42
60307;BME280;46155;52.364;6.580;2023-03-01T14:50:27;102397.41;;;6.15;52.24
60307;BME280;46155;52.364;6.580;2023-03-01T14:52:56;102400.94;;;6.25;52.32
60307;BME280;46155;52.364;6.580;2023-03-01T14:55:33;102387.31;;;6.27;52.08
60307;BME280;46155;52.364;6.580;2023-03-01T14:58:02;102387.63;;;6.30;51.21
60307;BME280;46155;52.364;6.580;2023-03-01T15:00:30;102396.16;;;6.20;50.56
60307;BME280;46155;52.364;6.580;2023-03-01T15:03:01;102393.09;;;6.16;50.34
60307;BME280;46155;52.364;6.580;2023-03-01T15:05:32;102386.03;;;6.15;50.56
60307;BME280;46155;52.364;6.580;2023-03-01T15:08:00;102377.59;;;6.17;50.74
60307;BME280;46155;52.364;6.580;2023-03-01T15:10:28;102371.63;;;6.18;51.33
60307;BME280;46155;52.364;6.580;2023-03-01T15:12:55;102370.09;;;6.20;51.59
60307;BME280;46155;52.364;6.580;2023-03-01T15:15:33;102362.72;;;6.16;51.51
60307;BME280;46155;52.364;6.580;2023-03-01T15:18:19;102364.66;;;6.01;51.57
60307;BME280;46155;52.364;6.580;2023-03-01T15:20:47;102367.28;;;6.01;51.64
60307;BME280;46155;52.364;6.580;2023-03-01T15:23:19;102377.94;;;5.96;52.33
60307;BME280;46155;52.364;6.580;2023-03-01T15:25:45;102370.50;;;6.08;52.68
60307;BME280;46155;52.364;6.580;2023-03-01T15:28:18;102372.22;;;6.07;51.71
60307;BME280;46155;52.364;6.580;2023-03-01T15:30:45;102364.81;;;6.03;51.61
60307;BME280;46155;52.364;6.580;2023-03-01T15:35:51;102357.84;;;6.19;50.56
60307;BME280;46155;52.364;6.580;2023-03-01T15:41:47;102361.41;;;6.37;52.02
60307;BME280;46155;52.364;6.580;2023-03-01T15:44:18;102357.25;;;6.31;50.85
60307;BME280;46155;52.364;6.580;2023-03-01T15:46:47;102365.53;;;6.27;50.66
60307;BME280;46155;52.364;6.580;2023-03-01T15:49:41;102359.03;;;6.14;50.61
60307;BME280;46155;52.364;6.580;2023-03-01T15:54:55;102353.22;;;6.17;51.14
60307;BME280;46155;52.364;6.580;2023-03-01T15:57:21;102359.34;;;6.17;51.09
60307;BME280;46155;52.364;6.580;2023-03-01T15:59:46;102344.28;;;6.06;50.39
60307;BME280;46155;52.364;6.580;2023-03-01T16:02:12;102351.97;;;6.13;50.88
60307;BME280;46155;52.364;6.580;2023-03-01T16:04:38;102349.06;;;6.10;50.36
60307;BME280;46155;52.364;6.580;2023-03-01T16:07:04;102349.81;;;6.09;50.01
60307;BME280;46155;52.364;6.580;2023-03-01T16:09:30;102348.91;;;6.17;50.77
60307;BME280;46155;52.364;6.580;2023-03-01T16:11:55;102341.84;;;6.16;51.03
60307;BME280;46155;52.364;6.580;2023-03-01T16:14:21;102334.28;;;6.02;51.01
60307;BME280;46155;52.364;6.580;2023-03-01T16:16:47;102336.16;;;6.03;51.43
60307;BME280;46155;52.364;6.580;2023-03-01T16:19:13;102339.34;;;6.00;52.29
60307;BME280;46155;52.364;6.580;2023-03-01T16:21:39;102336.91;;;6.02;53.98
60307;BME280;46155;52.364;6.580;2023-03-01T16:24:05;102341.19;;;6.52;57.41
60307;BME280;46155;52.364;6.580;2023-03-01T16:26:31;102340.34;;;6.27;50.80
60307;BME280;46155;52.364;6.580;2023-03-01T16:28:57;102334.81;;;6.15;50.63
60307;BME280;46155;52.364;6.580;2023-03-01T16:31:24;102335.38;;;6.04;51.01
60307;BME280;46155;52.364;6.580;2023-03-01T16:33:54;102335.84;;;6.00;51.29
60307;BME280;46155;52.364;6.580;2023-03-01T16:36:20;102339.09;;;5.81;51.46
60307;BME280;46155;52.364;6.580;2023-03-01T16:38:48;102339.22;;;5.74;52.53
60307;BME280;46155;52.364;6.580;2023-03-01T16:41:16;102332.44;;;5.67;52.43
60307;BME280;46155;52.364;6.580;2023-03-01T16:43:42;102331.78;;;5.61;52.58
60307;BME280;46155;52.364;6.580;2023-03-01T16:46:12;102336.50;;;5.57;53.18
60307;BME280;46155;52.364;6.580;2023-03-01T16:48:38;102333.91;;;5.57;53.42
60307;BME280;46155;52.364;6.580;2023-03-01T16:51:04;102336.94;;;5.52;53.62
60307;BME280;46155;52.364;6.580;2023-03-01T16:53:29;102337.22;;;5.47;54.59
60307;BME280;46155;52.364;6.580;2023-03-01T16:55:58;102345.19;;;5.48;54.08
60307;BME280;46155;52.364;6.580;2023-03-01T16:58:24;102343.28;;;5.39;54.67
60307;BME280;46155;52.364;6.580;2023-03-01T17:00:53;102345.75;;;5.37;55.05
60307;BME280;46155;52.364;6.580;2023-03-01T17:03:23;102345.84;;;5.30;55.41
60307;BME280;46155;52.364;6.580;2023-03-01T17:05:49;102344.44;;;5.25;56.06
60307;BME280;46155;52.364;6.580;2023-03-01T17:08:16;102322.03;;;5.18;56.22
60307;BME280;46155;52.364;6.580;2023-03-01T17:10:41;102336.31;;;5.22;56.56
60307;BME280;46155;52.364;6.580;2023-03-01T17:13:08;102327.50;;;5.12;56.99
60307;BME280;46155;52.364;6.580;2023-03-01T17:15:34;102342.38;;;5.13;56.76
60307;BME280;46155;52.364;6.580;2023-03-01T17:18:00;102329.91;;;5.02;57.26
60307;BME280;46155;52.364;6.580;2023-03-01T17:20:26;102344.94;;;5.05;57.34
60307;BME280;46155;52.364;6.580;2023-03-01T17:22:52;102349.19;;;5.04;58.21
60307;BME280;46155;52.364;6.580;2023-03-01T17:25:17;102356.84;;;5.03;58.09
60307;BME280;46155;52.364;6.580;2023-03-01T17:27:43;102357.41;;;5.00;57.81
60307;BME280;46155;52.364;6.580;2023-03-01T17:30:11;102360.81;;;4.99;58.39
60307;BME280;46155;52.364;6.580;2023-03-01T17:32:37;102349.38;;;4.90;59.19
60307;BME280;46155;52.364;6.580;2023-03-01T17:35:03;102355.34;;;4.89;59.45
60307;BME280;46155;52.364;6.580;2023-03-01T17:37:28;102348.94;;;5.10;60.54
60307;BME280;46155;52.364;6.580;2023-03-01T17:39:54;102352.91;;;5.06;59.08
60307;BME280;46155;52.364;6.580;2023-03-01T17:42:19;102355.25;;;4.96;59.40
60307;BME280;46155;52.364;6.580;2023-03-01T17:44:44;102354.69;;;4.82;60.35
60307;BME280;46155;52.364;6.580;2023-03-01T17:47:10;102347.66;;;4.65;60.58
60307;BME280;46155;52.364;6.580;2023-03-01T17:49:35;102350.81;;;4.63;60.83
60307;BME280;46155;52.364;6.580;2023-03-01T17:52:01;102346.53;;;4.47;61.23
60307;BME280;46155;52.364;6.580;2023-03-01T17:54:26;102354.75;;;4.43;62.17
60307;BME280;46155;52.364;6.580;2023-03-01T17:56:52;102359.47;;;4.39;62.58
60307;BME280;46155;52.364;6.580;2023-03-01T17:59:18;102348.56;;;4.34;62.45
60307;BME280;46155;52.364;6.580;2023-03-01T18:01:43;102357.09;;;4.33;62.75
60307;BME280;46155;52.364;6.580;2023-03-01T18:04:09;102363.06;;;4.32;62.74
60307;BME280;46155;52.364;6.580;2023-03-01T18:06:35;102352.41;;;4.22;63.31
60307;BME280;46155;52.364;6.580;2023-03-01T18:09:01;102365.91;;;4.26;63.42
60307;BME280;46155;52.364;6.580;2023-03-01T18:11:26;102365.41;;;4.22;63.52
60307;BME280;46155;52.364;6.580;2023-03-01T18:13:53;102368.06;;;4.14;63.89
60307;BME280;46155;52.364;6.580;2023-03-01T18:16:20;102377.72;;;4.16;64.25
60307;BME280;46155;52.364;6.580;2023-03-01T18:18:45;102384.97;;;4.11;64.22
60307;BME280;46155;52.364;6.580;2023-03-01T18:21:12;102381.88;;;4.06;64.85
60307;BME280;46155;52.364;6.580;2023-03-01T18:23:38;102387.06;;;4.06;65.07
60307;BME280;46155;52.364;6.580;2023-03-01T18:26:06;102370.47;;;3.97;65.19
60307;BME280;46155;52.364;6.580;2023-03-01T18:28:32;102374.94;;;3.91;65.86
60307;BME280;46155;52.364;6.580;2023-03-01T18:31:03;102375.91;;;3.91;65.79
60307;BME280;46155;52.364;6.580;2023-03-01T18:33:30;102380.53;;;3.87;66.43
60307;BME280;46155;52.364;6.580;2023-03-01T18:35:56;102381.56;;;3.80;66.51
60307;BME280;46155;52.364;6.580;2023-03-01T18:38:21;102383.78;;;3.77;66.87
60307;BME280;46155;52.364;6.580;2023-03-01T18:40:47;102367.56;;;3.64;67.27
60307;BME280;46155;52.364;6.580;2023-03-01T18:43:12;102377.97;;;3.64;67.61
60307;BME280;46155;52.364;6.580;2023-03-01T18:45:38;102383.66;;;3.68;67.35
60307;BME280;46155;52.364;6.580;2023-03-01T18:48:03;102384.22;;;3.66;67.96
60307;BME280;46155;52.364;6.580;2023-03-01T18:50:29;102379.47;;;3.61;67.89
60307;BME280;46155;52.364;6.580;2023-03-01T18:52:54;102383.72;;;3.61;68.26
60307;BME280;46155;52.364;6.580;2023-03-01T18:55:19;102375.19;;;3.62;68.19
60307;BME280;46155;52.364;6.580;2023-03-01T18:57:45;102378.13;;;3.65;68.12